createdAt,value
2023-03-23T15:59:29.689Z,50.40
2023-03-23T16:01:57.426Z,51.50
2023-03-23T16:04:24.456Z,51.70
2023-03-23T16:06:54.703Z,51.80
2023-03-23T16:09:21.783Z,51.80
2023-03-23T16:11:48.454Z,52.50
2023-03-23T16:14:15.461Z,52.30
2023-03-23T16:16:51.226Z,51.80
2023-03-23T16:19:20.250Z,51.70
2023-03-23T16:21:47.021Z,51.40
2023-03-23T16:24:13.638Z,52.30
2023-03-23T16:26:40.951Z,51.70
2023-03-23T16:29:28.467Z,52.10
2023-03-23T16:32:01.031Z,51.70
2023-03-23T16:34:29.954Z,52.10
2023-03-23T16:36:56.564Z,52.50
2023-03-23T16:39:23.342Z,51.90
2023-03-23T16:41:50.302Z,52.50
2023-03-23T16:44:17.022Z,52.70
2023-03-23T16:46:43.746Z,54.00
2023-03-23T16:49:10.629Z,54.90
2023-03-23T16:51:37.287Z,55.60
2023-03-23T16:54:04.369Z,56.40
2023-03-23T16:56:31.243Z,56.70
2023-03-23T16:58:57.869Z,57.10
2023-03-23T17:01:24.551Z,57.80
2023-03-23T17:03:51.388Z,58.60
2023-03-23T17:06:18.127Z,59.80
2023-03-23T17:08:44.885Z,61.20
2023-03-23T17:11:11.979Z,62.60
2023-03-23T17:13:38.935Z,64.10
2023-03-23T17:16:06.130Z,65.20
2023-03-23T17:18:32.833Z,67.10
2023-03-23T17:20:59.436Z,68.10
2023-03-23T17:23:26.454Z,68.80
2023-03-23T17:25:53.977Z,70.10
2023-03-23T17:28:21.126Z,70.60
2023-03-23T17:30:48.512Z,71.30
2023-03-23T17:33:15.346Z,72.70
2023-03-23T17:35:42.816Z,72.40
2023-03-23T17:38:09.840Z,72.70
2023-03-23T17:40:36.699Z,72.60
2023-03-23T17:43:03.517Z,72.50
2023-03-23T17:45:30.389Z,72.90
2023-03-23T17:47:57.146Z,72.80
2023-03-23T17:50:23.852Z,72.80
2023-03-23T17:52:50.730Z,73.60
2023-03-23T17:55:17.397Z,74.00
2023-03-23T17:57:44.907Z,74.30
2023-03-23T18:00:13.489Z,74.20
2023-03-23T18:02:40.343Z,74.50
2023-03-23T18:05:09.202Z,74.90
2023-03-23T18:07:36.797Z,74.70
2023-03-23T18:10:04.299Z,75.20
2023-03-23T18:12:31.081Z,75.40
2023-03-23T18:14:58.832Z,75.80
2023-03-23T18:17:26.587Z,75.80
2023-03-23T18:19:53.738Z,76.50
2023-03-23T18:22:20.683Z,76.80
2023-03-23T18:24:47.492Z,77.20
2023-03-23T18:27:14.376Z,77.20
2023-03-23T18:29:41.112Z,77.60
2023-03-23T18:32:08.316Z,78.00
2023-03-23T18:34:36.616Z,78.30
2023-03-23T18:37:03.898Z,78.40
2023-03-23T18:39:33.781Z,79.00
2023-03-23T18:42:01.000Z,78.80
2023-03-23T18:44:27.844Z,78.60
2023-03-23T18:46:54.476Z,78.80
2023-03-23T18:49:21.271Z,78.90
2023-03-23T18:51:48.206Z,78.70
2023-03-23T18:54:15.054Z,78.40
2023-03-23T18:56:41.775Z,78.70
2023-03-23T18:59:08.498Z,78.60
2023-03-23T19:01:35.273Z,78.20
2023-03-23T19:04:02.518Z,77.90
2023-03-23T19:06:34.538Z,77.40
2023-03-23T19:09:01.323Z,77.00
2023-03-23T19:11:28.110Z,76.10
2023-03-23T19:14:02.238Z,75.80
2023-03-23T19:16:35.508Z,75.60
2023-03-23T19:19:04.054Z,75.00
2023-03-23T19:21:32.022Z,74.50
2023-03-23T19:23:59.459Z,74.10
2023-03-23T19:26:38.171Z,72.90
2023-03-23T19:31:37.262Z,72.80
2023-03-23T19:34:04.600Z,73.20
2023-03-23T19:36:31.940Z,73.60
2023-03-23T19:39:02.607Z,74.40
2023-03-23T19:41:29.971Z,74.90
2023-03-23T19:43:56.692Z,75.30
2023-03-23T19:46:23.747Z,76.60
2023-03-23T19:48:50.752Z,77.30
2023-03-23T19:51:19.974Z,78.20
2023-03-23T19:53:47.017Z,78.50
2023-03-23T19:56:19.781Z,79.10
2023-03-23T19:58:46.941Z,79.30
2023-03-23T20:01:14.160Z,79.90
2023-03-23T20:03:42.057Z,80.30
2023-03-23T20:06:14.940Z,81.20
2023-03-23T20:08:44.615Z,82.20
2023-03-23T20:11:14.591Z,82.60
2023-03-23T20:13:41.584Z,82.60
2023-03-23T20:16:09.487Z,83.00
2023-03-23T20:18:38.036Z,83.50
2023-03-23T20:21:09.991Z,83.90
2023-03-23T20:23:38.390Z,84.20
2023-03-23T20:26:14.890Z,84.40
2023-03-23T20:28:42.587Z,84.70
2023-03-23T20:31:24.761Z,85.10
2023-03-23T20:34:02.336Z,85.30
2023-03-23T20:36:36.725Z,85.90
2023-03-23T20:39:05.571Z,86.20
2023-03-23T20:41:34.726Z,86.60
2023-03-23T20:44:02.224Z,86.70
2023-03-23T20:46:29.246Z,86.40
2023-03-23T20:48:55.942Z,86.80
2023-03-23T20:51:22.669Z,87.40
2023-03-23T20:53:50.057Z,87.30
2023-03-23T20:56:16.813Z,87.60
2023-03-23T20:58:43.534Z,87.90
2023-03-23T21:01:11.790Z,88.10
2023-03-23T21:03:40.767Z,88.50
2023-03-23T21:06:08.363Z,88.50
2023-03-23T21:08:37.272Z,89.10
2023-03-23T21:11:05.828Z,89.40
2023-03-23T21:13:33.130Z,89.10
2023-03-23T21:16:02.157Z,89.20
2023-03-23T21:18:29.197Z,89.60
2023-03-23T21:20:57.164Z,89.60
2023-03-23T21:23:26.482Z,89.70
2023-03-23T21:25:53.735Z,90.10
2023-03-23T21:28:20.660Z,90.20
2023-03-23T21:30:49.300Z,90.30
2023-03-23T21:33:17.088Z,90.30
2023-03-23T21:35:43.821Z,90.50
2023-03-23T21:38:19.738Z,90.60
2023-03-23T21:40:46.814Z,90.40
2023-03-23T21:43:16.410Z,90.30
2023-03-23T21:45:44.503Z,90.10
2023-03-23T21:48:12.631Z,90.30
2023-03-23T21:50:44.128Z,90.20
2023-03-23T21:53:18.220Z,90.30
2023-03-23T21:55:54.440Z,90.20
2023-03-23T21:58:25.039Z,90.30
2023-03-23T22:00:54.465Z,90.30
2023-03-23T22:03:23.389Z,90.20
2023-03-23T22:05:54.144Z,90.10
2023-03-23T22:08:22.332Z,90.10
2023-03-23T22:11:00.428Z,90.20
2023-03-23T22:13:30.350Z,90.30
2023-03-23T22:15:58.730Z,90.30
2023-03-23T22:18:26.021Z,90.00
2023-03-23T22:20:53.226Z,89.70
2023-03-23T22:23:20.023Z,89.60
2023-03-23T22:25:46.729Z,89.50
2023-03-23T22:28:13.416Z,90.20
2023-03-23T22:30:40.186Z,89.30
2023-03-23T22:33:07.032Z,89.10
2023-03-23T22:35:33.808Z,89.10
2023-03-23T22:38:02.945Z,89.50
2023-03-23T22:40:31.250Z,89.50
2023-03-23T22:42:58.321Z,89.50
2023-03-23T22:45:26.145Z,89.30
2023-03-23T22:47:53.214Z,88.90
2023-03-23T22:50:21.455Z,88.90
2023-03-23T22:52:48.477Z,88.70
2023-03-23T22:55:15.374Z,88.20
2023-03-23T22:57:42.146Z,87.80
2023-03-23T23:00:14.730Z,87.70
2023-03-23T23:02:44.982Z,87.60
2023-03-23T23:05:13.065Z,87.60
2023-03-23T23:07:39.819Z,87.30
2023-03-23T23:10:07.539Z,87.40
2023-03-23T23:12:35.218Z,87.40
2023-03-23T23:15:04.577Z,87.60
2023-03-23T23:17:32.456Z,87.50
2023-03-23T23:19:59.946Z,87.50
2023-03-23T23:22:27.399Z,87.90
2023-03-23T23:24:54.460Z,88.10
2023-03-23T23:27:21.321Z,88.30
2023-03-23T23:29:48.011Z,88.40
2023-03-23T23:32:14.766Z,88.80
2023-03-23T23:34:41.544Z,88.50
2023-03-23T23:37:09.013Z,88.10
2023-03-23T23:39:38.244Z,88.00
2023-03-23T23:42:05.769Z,88.10
2023-03-23T23:44:32.713Z,88.00
2023-03-23T23:46:59.381Z,88.10
2023-03-23T23:49:28.634Z,89.20
2023-03-23T23:51:56.446Z,88.70
2023-03-23T23:54:29.512Z,89.10
2023-03-23T23:57:01.117Z,89.00
2023-03-23T23:59:29.064Z,89.10
